Home > Products > Valid Products > MTR

000
SAUS46 KLOX 301957
MTR9L2
METAR K9L2 301955Z AUTO 30007KT 240V320 10SM CLR 33/09 A2992 RMK AO2
SLP106 T03330089 TSNO $





000
SAUS46 KLOX 301949
MTRSDB
METAR KSDB 301948Z AUTO 36009KT 10SM CLR 25/11 A3012 RMK AO2 SLP142
T02500106 $





000
SAUS46 KLOX 301948
MTRCQT
METAR KCQT 301947Z AUTO 00000KT 10SM CLR 31/19 A2988 RMK AO2 SLP115
T03060194





000
SAUS46 KLOX 301857
MTR9L2
METAR K9L2 301855Z AUTO 28013KT 10SM CLR 32/10 A2994 RMK AO2 SLP114
T03220100 TSNO $





000
SAUS46 KLOX 301857
MTR9L2
METAR K9L2 301855Z AUTO 28013KT 10SM CLR 32/10 A2994 RMK AO2 SLP114
T03220100 TSNO $





000
SAUS46 KLOX 301849
MTRSDB
METAR KSDB 301848Z AUTO 34016KT 10SM CLR 24/11 A3013 RMK AO2 SLP147
T02440111 $





000
SAUS46 KLOX 301848
MTRCQT
METAR KCQT 301847Z AUTO VRB04KT 10SM CLR 31/18 A2989 RMK AO2 SLP119
T03060178





000
SAUS46 KLOX 301848
MTRCQT
METAR KCQT 301847Z AUTO VRB04KT 10SM CLR 31/18 A2989 RMK AO2 SLP119
T03060178





000
SAUS46 KLOX 301757
MTR9L2
METAR K9L2 301755Z AUTO 26015KT 10SM CLR 31/09 A2994 RMK AO2 SLP116
T03110094 10317 20222 55002 TSNO $





000
SAUS46 KLOX 301757
MTR9L2
METAR K9L2 301755Z AUTO 26015KT 10SM CLR 31/09 A2994 RMK AO2 SLP116
T03110094 10317 20222 55002 TSNO $





000
SAUS46 KLOX 301749
MTRSDB
METAR KSDB 301748Z AUTO 32009KT 10SM CLR 24/11 A3013 RMK AO2 SLP146
T02390111 10250 20156 53005 $





000
SAUS46 KLOX 301749
MTRSDB
METAR KSDB 301748Z AUTO 32009KT 10SM CLR 24/11 A3013 RMK AO2 SLP146
T02390111 10250 20156 53005 $





000
SAUS46 KLOX 301748
MTRCQT
METAR KCQT 301747Z AUTO 00000KT 10SM CLR 29/18 A2990 RMK AO2 SLP121
T02890183 10289 20228 51003





000
SAUS46 KLOX 301748
MTRCQT
METAR KCQT 301747Z AUTO 00000KT 10SM CLR 29/18 A2990 RMK AO2 SLP121
T02890183 10289 20228 51003





000
SAUS46 KLOX 301657
MTR9L2
METAR K9L2 301655Z AUTO 24014KT 10SM CLR 29/11 A2994 RMK AO2 SLP116
T02940106 $





000
SAUS46 KLOX 301657
MTR9L2
METAR K9L2 301655Z AUTO 24014KT 10SM CLR 29/11 A2994 RMK AO2 SLP116
T02940106 $





000
SAUS46 KLOX 301649
MTRSDB
METAR KSDB 301648Z AUTO 24006KT 10SM CLR 23/11 A3013 RMK AO2 SLP144
T02330106 $





000
SAUS46 KLOX 301649
MTRSDB
METAR KSDB 301648Z AUTO 24006KT 10SM CLR 23/11 A3013 RMK AO2 SLP144
T02330106 $





000
SAUS46 KLOX 301648
MTRCQT
METAR KCQT 301647Z AUTO 00000KT 10SM CLR 28/19 A2990 RMK AO2 SLP120
T02830189





000
SAUS46 KLOX 301648
MTRCQT
METAR KCQT 301647Z AUTO 00000KT 10SM CLR 28/19 A2990 RMK AO2 SLP120
T02830189





000
SAUS46 KLOX 301557
MTR9L2
METAR K9L2 301555Z AUTO 25013KT 10SM CLR 27/12 A2995 RMK AO2 SLP118
T02720117 $





000
SAUS46 KLOX 301549
MTRSDB
METAR KSDB 301548Z AUTO VRB04KT 10SM CLR 23/11 A3012 RMK AO2 SLP140
T02280106 $





000
SAUS46 KLOX 301548
MTRCQT
METAR KCQT 301547Z AUTO VRB03KT 10SM CLR 26/19 A2990 RMK AO2 SLP120
T02560194





000
SAUS46 KLOX 301459
MTR9L2
METAR K9L2 301455Z AUTO 23009KT 10SM CLR 24/12 A2995 RMK AO2 SLP121
T02440122 53005 $





000
SAUS46 KLOX 301449
MTRSDB
METAR KSDB 301448Z AUTO VRB05KT 10SM CLR 21/12 A3012 RMK AO2 SLP143
T02060117 53005 $





000
SAUS46 KLOX 301449
MTRSDB
METAR KSDB 301448Z AUTO VRB05KT 10SM CLR 21/12 A3012 RMK AO2 SLP143
T02060117 53005 $





000
SAUS46 KLOX 301448
MTRCQT
METAR KCQT 301447Z AUTO VRB03KT 10SM CLR 24/19 A2989 RMK AO2 SLP118
T02440189 53010





000
SAUS46 KLOX 301356
MTR9L2
METAR K9L2 301355Z AUTO 25011KT 10SM CLR 23/12 A2994 RMK AO2 SLP117
T02280122 $





000
SAUS46 KLOX 301349
MTRSDB
METAR KSDB 301348Z AUTO 32008KT 10SM CLR 17/12 A3010 RMK AO2 SLP140
T01670122 $





000
SAUS46 KLOX 301349
MTRSDB
METAR KSDB 301348Z AUTO 32008KT 10SM CLR 17/12 A3010 RMK AO2 SLP140
T01670122 $





000
SAUS46 KLOX 301348
MTRCQT
METAR KCQT 301347Z AUTO 00000KT 10SM CLR 23/18 A2988 RMK AO2 SLP113
T02330183





000
SAUS46 KLOX 301348
MTRCQT
METAR KCQT 301347Z AUTO 00000KT 10SM CLR 23/18 A2988 RMK AO2 SLP113
T02330183





000
SAUS46 KLOX 301257
MTR9L2
METAR K9L2 301255Z AUTO 25014KT 10SM CLR 23/11 A2993 RMK AO2 SLP111
T02280111 $





000
SAUS46 KLOX 301249
MTRSDB
METAR KSDB 301248Z AUTO 36006KT 10SM CLR 16/13 A3010 RMK AO2 SLP135
T01560133 $





000
SAUS46 KLOX 301248
MTRCQT
METAR KCQT 301247Z AUTO 00000KT 10SM CLR 23/18 A2987 RMK AO2 SLP110
T02280183





000
SAUS46 KLOX 301248
MTRCQT
METAR KCQT 301247Z AUTO 00000KT 10SM CLR 23/18 A2987 RMK AO2 SLP110
T02280183





000
SAUS46 KLOX 301157
MTR9L2
METAR K9L2 301155Z AUTO 25011KT 10SM CLR 23/11 A2993 RMK AO2 SLP112
T02330111 10267 20228 57001 $





000
SAUS46 KLOX 301157
MTR9L2
METAR K9L2 301155Z AUTO 25011KT 10SM CLR 23/11 A2993 RMK AO2 SLP112
T02330111 10267 20228 57001 $





000
SAUS46 KLOX 301149
MTRSDB
METAR KSDB 301148Z AUTO 34012KT 10SM CLR 17/13 A3010 RMK AO2 SLP135
T01670133 10222 20167 56006 $





000
SAUS46 KLOX 301149
MTRSDB
METAR KSDB 301148Z AUTO 34012KT 10SM CLR 17/13 A3010 RMK AO2 SLP135
T01670133 10222 20167 56006 $





000
SAUS46 KLOX 301148
MTRCQT
METAR KCQT 301147Z AUTO 00000KT 10SM CLR 23/19 A2986 RMK AO2 SLP108
T02280189 10250 20228 53002





000
SAUS46 KLOX 301148
MTRCQT
METAR KCQT 301147Z AUTO 00000KT 10SM CLR 23/19 A2986 RMK AO2 SLP108
T02280189 10250 20228 53002





000
SAUS46 KLOX 301057
MTR9L2
METAR K9L2 301055Z AUTO 24009KT 10SM CLR 24/10 A2993 RMK AO2 SLP111
T02390100 $





000
SAUS46 KLOX 301049
MTRSDB
METAR KSDB 301048Z AUTO 33012KT 10SM CLR 17/13 A3010 RMK AO2 SLP134
T01720133 $





000
SAUS46 KLOX 301048
MTRCQT
METAR KCQT 301047Z AUTO 00000KT 10SM CLR 23/19 A2985 RMK AO2 SLP106
T02280189





000
SAUS46 KLOX 300959
MTR9L2
METAR K9L2 300955Z AUTO 21006KT 10SM CLR 24/09 A2993 RMK AO2 SLP112
T02390089 $





000
SAUS46 KLOX 300949
MTRSDB
METAR KSDB 300948Z AUTO 34012KT 10SM CLR 18/13 A3011 RMK AO2 SLP137
T01780128 $





000
SAUS46 KLOX 300949
MTRSDB
METAR KSDB 300948Z AUTO 34012KT 10SM CLR 18/13 A3011 RMK AO2 SLP137
T01780128 $





000
SAUS46 KLOX 300948
MTRCQT
METAR KCQT 300947Z AUTO 00000KT 10SM CLR 23/18 A2986 RMK AO2 SLP106
T02280183





000
SAUS46 KLOX 300948
MTRCQT
METAR KCQT 300947Z AUTO 00000KT 10SM CLR 23/18 A2986 RMK AO2 SLP106
T02280183





000
SAUS46 KLOX 300856
MTR9L2
METAR K9L2 300855Z AUTO 22006KT 10SM CLR 24/08 A2994 RMK AO2 SLP112
T02390083 50001 $





000
SAUS46 KLOX 300856
MTR9L2
METAR K9L2 300855Z AUTO 22006KT 10SM CLR 24/08 A2994 RMK AO2 SLP112
T02390083 50001 $





000
SAUS46 KLOX 300849
MTRSDB
METAR KSDB 300848Z AUTO 34011KT 10SM CLR 19/12 A3012 RMK AO2 SLP138
T01890122 58001 $





000
SAUS46 KLOX 300848
MTRCQT
METAR KCQT 300847Z AUTO 00000KT 10SM CLR 23/18 A2985 RMK AO2 SLP105
T02330183 50004





000
SAUS46 KLOX 300757
MTR9L2
METAR K9L2 300755Z AUTO 25008KT 10SM CLR 26/09 A2994 RMK AO2 SLP114
T02610089 403890211 $





000
SAUS46 KLOX 300749
MTRSDB
METAR KSDB 300748Z AUTO 35012KT 10SM CLR 20/11 A3013 RMK AO2 PK WND
33029/0718 SLP142 T02000106 403060200 $





000
SAUS46 KLOX 300748
MTRCQT
METAR KCQT 300747Z AUTO 00000KT 10SM CLR 23/19 A2986 RMK AO2 SLP107
T02330189 403440228





000
SAUS46 KLOX 300748
MTRCQT
METAR KCQT 300747Z AUTO 00000KT 10SM CLR 23/19 A2986 RMK AO2 SLP107
T02330189 403440228





000
SAUS46 KLOX 300659
MTR9L2
METAR K9L2 300655Z AUTO 24006KT 10SM CLR 26/09 A2994 RMK AO2 SLP112
T02560089 $





000
SAUS46 KLOX 300659
MTR9L2
METAR K9L2 300655Z AUTO 24006KT 10SM CLR 26/09 A2994 RMK AO2 SLP112
T02560089 $





000
SAUS46 KLOX 300649
MTRSDB
METAR KSDB 300648Z AUTO 34022G28KT 10SM CLR 21/09 A3012 RMK AO2 PK
WND 34028/0648 SLP138 T02110094 $





000
SAUS46 KLOX 300648
MTRCQT
METAR KCQT 300647Z AUTO 00000KT 10SM CLR 24/19 A2985 RMK AO2 SLP104
T02390189





000
SAUS46 KLOX 300559
MTR9L2
METAR K9L2 300555Z AUTO 25009KT 10SM CLR 27/09 A2993 RMK AO2 SLP112
T02670089 10367 20267 51010 $





000
SAUS46 KLOX 300559
MTR9L2
METAR K9L2 300555Z AUTO 25009KT 10SM CLR 27/09 A2993 RMK AO2 SLP112
T02670089 10367 20267 51010 $





000
SAUS46 KLOX 300549
MTRSDB
METAR KSDB 300548Z AUTO 34014G19KT 10SM CLR 22/09 A3012 RMK AO2 PK
WND 33029/0536 SLP140 T02220089 10294 20217 50003 $





000
SAUS46 KLOX 300549
MTRSDB
METAR KSDB 300548Z AUTO 34014G19KT 10SM CLR 22/09 A3012 RMK AO2 PK
WND 33029/0536 SLP140 T02220089 10294 20217 50003 $





000
SAUS46 KLOX 300548
MTRCQT
METAR KCQT 300547Z AUTO 00000KT 10SM CLR 25/18 A2984 RMK AO2 SLP101
T02500183 10300 20250 51008





000
SAUS46 KLOX 300548
MTRCQT
METAR KCQT 300547Z AUTO 00000KT 10SM CLR 25/18 A2984 RMK AO2 SLP101
T02500183 10300 20250 51008





000
SAUS46 KLOX 300456
MTR9L2
METAR K9L2 300455Z AUTO 26011KT 10SM CLR 28/08 A2993 RMK AO2 SLP110
T02780083 $





000
SAUS46 KLOX 300450
MTRSDB
METAR KSDB 300448Z AUTO 33014G20KT 10SM CLR 22/08 A3013 RMK AO2
SLP143 T02220083 $





000
SAUS46 KLOX 300449
MTRCQT
METAR KCQT 300447Z AUTO 00000KT 10SM CLR 26/18 A2984 RMK AO2 SLP101
T02560178





000
SAUS46 KLOX 300357
MTR9L2
METAR K9L2 300355Z AUTO 27013G20KT 10SM CLR 29/07 A2992 RMK AO2
SLP109 T02890072 $





000
SAUS46 KLOX 300349
MTRSDB
METAR KSDB 300348Z AUTO 34011G18KT 10SM CLR 23/08 A3012 RMK AO2
SLP139 T02280083 $





000
SAUS46 KLOX 300348
MTRCQT
METAR KCQT 300347Z AUTO 00000KT 10SM CLR 26/17 A2983 RMK AO2 SLP097
T02560167





000
SAUS46 KLOX 300257
MTR9L2
METAR K9L2 300255Z AUTO 28015KT 10SM CLR 30/06 A2990 RMK AO2 SLP105
T03000061 53007 $





000
SAUS46 KLOX 300249
MTRSDB
METAR KSDB 300248Z AUTO 33008KT 10SM CLR 23/08 A3011 RMK AO2 SLP139
T02280083 55001 $





000
SAUS46 KLOX 300249
MTRSDB
METAR KSDB 300248Z AUTO 33008KT 10SM CLR 23/08 A3011 RMK AO2 SLP139
T02280083 55001 $





000
SAUS46 KLOX 300248
MTRCQT
METAR KCQT 300247Z AUTO VRB03KT 10SM CLR 27/17 A2982 RMK AO2 SLP093
T02670167 56005





000
SAUS46 KLOX 300157
MTR9L2
METAR K9L2 300155Z AUTO 28017G23KT 10SM CLR 32/06 A2989 RMK AO2
SLP100 T03220056 $





000
SAUS46 KLOX 300157
MTR9L2
METAR K9L2 300155Z AUTO 28017G23KT 10SM CLR 32/06 A2989 RMK AO2
SLP100 T03220056 $





000
SAUS46 KLOX 300151
MTRSDB
METAR KSDB 300148Z AUTO 36008G21KT 10SM CLR 26/07 A3011 RMK AO2
SLP135 T02560072 $





000
SAUS46 KLOX 300151
MTRSDB
METAR KSDB 300148Z AUTO 36008G21KT 10SM CLR 26/07 A3011 RMK AO2
SLP135 T02560072 $





000
SAUS46 KLOX 300149
MTRCQT
METAR KCQT 300147Z AUTO VRB04KT 10SM CLR 27/17 A2982 RMK AO2 SLP094
T02720172





000
SAUS46 KLOX 300149
MTRCQT
METAR KCQT 300147Z AUTO VRB04KT 10SM CLR 27/17 A2982 RMK AO2 SLP094
T02720172





000
SAUS46 KLOX 300057
MTR9L2
METAR K9L2 300055Z AUTO 28018G23KT 10SM CLR 35/05 A2988 RMK AO2 PK
WND 30026/0015 SLP094 T03500050 $





000
SAUS46 KLOX 300057
MTR9L2
METAR K9L2 300055Z AUTO 28018G23KT 10SM CLR 35/05 A2988 RMK AO2 PK
WND 30026/0015 SLP094 T03500050 $





000
SAUS46 KLOX 300049
MTRSDB
METAR KSDB 300048Z AUTO 34015G21KT 10SM CLR 28/07 A3011 RMK AO2
SLP132 T02830067 $





000
SAUS46 KLOX 300048
MTRCQT
METAR KCQT 300047Z AUTO VRB03KT 10SM CLR 29/18 A2982 RMK AO2 SLP095
T02890183





000
SAUS46 KLOX 292356
MTR9L2
METAR K9L2 292355Z AUTO 29015G23KT 10SM CLR 36/02 A2988 RMK AO2
SLP094 T03610022 10389 20333 56014 $





000
SAUS46 KLOX 292356
MTR9L2
METAR K9L2 292355Z AUTO 29015G23KT 10SM CLR 36/02 A2988 RMK AO2
SLP094 T03610022 10389 20333 56014 $





000
SAUS46 KLOX 292349
MTRCQT
METAR KCQT 292347Z AUTO VRB04KT 10SM CLR 29/15 A2983 RMK AO2 SLP099
T02940150 10344 20294 56010





000
SAUS46 KLOX 292349
MTRSDB
METAR KSDB 292348Z AUTO 34014G17KT 10SM CLR 29/07 A3011 RMK AO2
SLP134 T02890067 10306 20267 56010 $





000
SAUS46 KLOX 292257
MTR9L2
METAR K9L2 292255Z AUTO 28011G19KT 10SM CLR 37/02 A2989 RMK AO2
SLP096 T03720017 $





000
SAUS46 KLOX 292257
MTR9L2
METAR K9L2 292255Z AUTO 28011G19KT 10SM CLR 37/02 A2989 RMK AO2
SLP096 T03720017 $





000
SAUS46 KLOX 292249
MTRCQT
METAR KCQT 292247Z AUTO 26004KT 10SM CLR 31/16 A2984 RMK AO2 SLP102
T03110156





000
SAUS46 KLOX 292249
MTRSDB
METAR KSDB 292248Z AUTO 34017G21KT 10SM CLR 30/07 A3012 RMK AO2
SLP136 T03000067 $





000
SAUS46 KLOX 292157
MTR9L2
METAR K9L2 292155Z AUTO 23020G26KT 10SM CLR 38/01 A2990 RMK AO2 PK
WND 24026/2153 SLP098 T03830011 $





000
SAUS46 KLOX 292149
MTRSDB
METAR KSDB 292148Z AUTO 33012G21KT 10SM CLR 30/06 A3014 RMK AO2
SLP138 T03000061 $





000
SAUS46 KLOX 292148
MTRCQT
METAR KCQT 292147Z AUTO 28007KT 230V290 10SM CLR 33/16 A2985 RMK AO2
SLP104 T03280161





000
SAUS46 KLOX 292057
MTR9L2
METAR K9L2 292055Z AUTO 23011G26KT 10SM CLR 38/M02 A2992 RMK AO2 PK
WND 22026/2046 SLP107 T03781017 58018 $





000
SAUS46 KLOX 292049
MTRSDB
METAR KSDB 292048Z AUTO 34013G19KT 10SM CLR 30/06 A3015 RMK AO2
SLP143 T03000061 58007 $





000
SAUS46 KLOX 292049
MTRSDB
METAR KSDB 292048Z AUTO 34013G19KT 10SM CLR 30/06 A3015 RMK AO2
SLP143 T03000061 58007 $





000
SAUS46 KLOX 292048
MTRCQT
METAR KCQT 292047Z AUTO 00000KT 10SM CLR 32/18 A2986 RMK AO2 SLP109
T03170178 57010





000
SAUS46 KLOX 291957
MTR9L2
METAR K9L2 291955Z AUTO 22012G23KT 190V250 10SM CLR 37/00 A2994 RMK
AO2 SLP112 T03670000 $





000
SAUS46 KLOX 291949
MTRSDB
METAR KSDB 291948Z AUTO 36008G16KT 10SM CLR 29/06 A3016 RMK AO2
SLP146 T02890061 $





000
SAUS46 KLOX 291949
MTRSDB
METAR KSDB 291948Z AUTO 36008G16KT 10SM CLR 29/06 A3016 RMK AO2
SLP146 T02890061 $





000
SAUS46 KLOX 291948
MTRCQT
METAR KCQT 291947Z AUTO VRB06KT 10SM CLR 33/18 A2987 RMK AO2 SLP112
T03330178





000
SAUS46 KLOX 291948
MTRCQT
METAR KCQT 291947Z AUTO VRB06KT 10SM CLR 33/18 A2987 RMK AO2 SLP112
T03330178





000
SAUS46 KLOX 291859
MTR9L2
METAR K9L2 291855Z AUTO 23011G17KT 10SM CLR 36/03 A2997 RMK AO2
SLP122 T03560033 $





000
SAUS46 KLOX 291859
MTR9L2
METAR K9L2 291855Z AUTO 23011G17KT 10SM CLR 36/03 A2997 RMK AO2
SLP122 T03560033 $





000
SAUS46 KLOX 291849
MTRSDB
METAR KSDB 291848Z AUTO 35012G17KT 10SM CLR 28/06 A3018 RMK AO2
SLP153 T02830061 $





000
SAUS46 KLOX 291849
MTRSDB
METAR KSDB 291848Z AUTO 35012G17KT 10SM CLR 28/06 A3018 RMK AO2
SLP153 T02830061 $





000
SAUS46 KLOX 291848
MTRCQT
METAR KCQT 291847Z AUTO 00000KT 10SM CLR 34/17 A2988 RMK AO2 SLP116
T03390167





000
SAUS46 KLOX 291848
MTRCQT
METAR KCQT 291847Z AUTO 00000KT 10SM CLR 34/17 A2988 RMK AO2 SLP116
T03390167





000
SAUS46 KLOX 291756
MTR9L2
METAR K9L2 291755Z AUTO 26009G17KT 10SM CLR 33/05 A2998 RMK AO2
SLP125 T03330050 10339 20211 53001 $





000
SAUS46 KLOX 291756
MTR9L2
METAR K9L2 291755Z AUTO 26009G17KT 10SM CLR 33/05 A2998 RMK AO2
SLP125 T03330050 10339 20211 53001 $





000
SAUS46 KLOX 291749
MTRSDB
METAR KSDB 291748Z AUTO 35013KT 10SM CLR 27/07 A3017 RMK AO2 SLP154
T02670067 10267 20211 51011 $





000
SAUS46 KLOX 291749
MTRSDB
METAR KSDB 291748Z AUTO 35013KT 10SM CLR 27/07 A3017 RMK AO2 SLP154
T02670067 10267 20211 51011 $





000
SAUS46 KLOX 291748
MTRCQT
METAR KCQT 291747Z AUTO 17003KT 10SM CLR 31/17 A2989 RMK AO2 SLP119
T03110167 10317 20228 51004





000
SAUS46 KLOX 291748
MTRCQT
METAR KCQT 291747Z AUTO 17003KT 10SM CLR 31/17 A2989 RMK AO2 SLP119
T03110167 10317 20228 51004





000
SAUS46 KLOX 291657
MTR9L2
METAR K9L2 291655Z AUTO 26012G19KT 10SM CLR 33/06 A2998 RMK AO2
SLP124 T03280056 TSNO $





000
SAUS46 KLOX 291649
MTRSDB
METAR KSDB 291648Z AUTO 36008G17KT 10SM CLR 26/06 A3017 RMK AO2
SLP152 T02560061 $





000
SAUS46 KLOX 291648
MTRCQT
METAR KCQT 291647Z AUTO 00000KT 10SM CLR 29/18 A2989 RMK AO2 SLP119
T02890178





000
SAUS46 KLOX 291648
MTRCQT
METAR KCQT 291647Z AUTO 00000KT 10SM CLR 29/18 A2989 RMK AO2 SLP119
T02890178





000
SAUS46 KLOX 291557
MTR9L2
METAR K9L2 291555Z AUTO 21007KT 10SM CLR 29/06 A2997 RMK AO2 SLP123
T02940061 TSNO $





000
SAUS46 KLOX 291549
MTRSDB
METAR KSDB 291548Z AUTO 34010KT 10SM CLR 24/06 A3016 RMK AO2 SLP149
T02440061 $





000
SAUS46 KLOX 291548
MTRCQT
METAR KCQT 291547Z AUTO 00000KT 10SM CLR 27/19 A2989 RMK AO2 SLP117
T02670189





000
SAUS46 KLOX 291548
MTRCQT
METAR KCQT 291547Z AUTO 00000KT 10SM CLR 27/19 A2989 RMK AO2 SLP117
T02670189





000
SAUS46 KLOX 291457
MTR9L2
METAR K9L2 291455Z AUTO 15006KT 10SM CLR 24/06 A2997 RMK AO2 SLP126
T02440056 53014 TSNO $





000
SAUS46 KLOX 291449
MTRSDB
METAR KSDB 291448Z AUTO 33016G24KT 10SM CLR 23/06 A3014 RMK AO2 PK
WND 34026/1356 SLP142 T02280056 53006 $





000
SAUS46 KLOX 291448
MTRCQT
METAR KCQT 291447Z AUTO 00000KT 10SM CLR 25/19 A2988 RMK AO2 SLP115
T02500194 53012





000
SAUS46 KLOX 291357
MTR9L2
METAR K9L2 291355Z AUTO 00000KT 10SM CLR 21/05 A2996 RMK AO2 SLP121
T02110050 TSNO $





000
SAUS46 KLOX 291357
MTR9L2
METAR K9L2 291355Z AUTO 00000KT 10SM CLR 21/05 A2996 RMK AO2 SLP121
T02110050 TSNO $





000
SAUS46 KLOX 291349
MTRSDB
METAR KSDB 291348Z AUTO 34016KT 10SM CLR 22/07 A3012 RMK AO2 SLP136
T02170072 $





000
SAUS46 KLOX 291348
MTRCQT
METAR KCQT 291347Z AUTO 00000KT 10SM CLR 23/19 A2987 RMK AO2 SLP112
T02280189





000
SAUS46 KLOX 291257
MTR9L2
METAR K9L2 291255Z AUTO 27006KT 10SM CLR 25/06 A2994 RMK AO2 SLP112
T02500056 TSNO $





000
SAUS46 KLOX 291257
MTR9L2
METAR K9L2 291255Z AUTO 27006KT 10SM CLR 25/06 A2994 RMK AO2 SLP112
T02500056 TSNO $





000
SAUS46 KLOX 291249
MTRSDB
METAR KSDB 291248Z AUTO 34014KT 10SM CLR 22/07 A3012 RMK AO2 PK WND
33026/1158 SLP133 T02220067 $





000
SAUS46 KLOX 291248
MTRCQT
METAR KCQT 291247Z AUTO 00000KT 10SM CLR 23/18 A2986 RMK AO2 SLP106
T02330183





000
SAUS46 KLOX 291157
MTR9L2
METAR K9L2 291155Z AUTO 21004KT 10SM CLR 22/05 A2993 RMK AO2 SLP110
T02170050 10294 20217 50000 TSNO $





000
SAUS46 KLOX 291157
MTR9L2
METAR K9L2 291155Z AUTO 21004KT 10SM CLR 22/05 A2993 RMK AO2 SLP110
T02170050 10294 20217 50000 TSNO $





000
SAUS46 KLOX 291149
MTRSDB
METAR KSDB 291148Z AUTO 34017KT 10SM CLR 22/06 A3012 RMK AO2 SLP129
T02170056 10256 20217 56004





000
SAUS46 KLOX 291149
MTRSDB
METAR KSDB 291148Z AUTO 34017KT 10SM CLR 22/06 A3012 RMK AO2 SLP129
T02170056 10256 20217 56004





000
SAUS46 KLOX 291148
MTRCQT
METAR KCQT 291147Z AUTO 00000KT 10SM CLR 23/18 A2985 RMK AO2 SLP103
T02330183 10244 20228 56005





000
SAUS46 KLOX 291148
MTRCQT
METAR KCQT 291147Z AUTO 00000KT 10SM CLR 23/18 A2985 RMK AO2 SLP103
T02330183 10244 20228 56005





000
SAUS46 KLOX 291057
MTR9L2
METAR K9L2 291055Z AUTO VRB03KT 10SM CLR 23/05 A2993 RMK AO2 SLP112
T02280050 TSNO $





000
SAUS46 KLOX 291049
MTRSDB
METAR KSDB 291048Z AUTO 33014KT 10SM CLR 22/06 A3012 RMK AO2 SLP128
T02220056





000
SAUS46 KLOX 291049
MTRSDB
METAR KSDB 291048Z AUTO 33014KT 10SM CLR 22/06 A3012 RMK AO2 SLP128
T02220056





000
SAUS46 KLOX 291048
MTRCQT
METAR KCQT 291047Z AUTO 00000KT 10SM CLR 23/18 A2985 RMK AO2 SLP106
T02280183





000
SAUS46 KLOX 291048
MTRCQT
METAR KCQT 291047Z AUTO 00000KT 10SM CLR 23/18 A2985 RMK AO2 SLP106
T02280183





000
SAUS46 KLOX 290957
MTR9L2
METAR K9L2 290955Z AUTO 21005KT 10SM CLR 23/05 A2993 RMK AO2 SLP108
T02280050 TSNO $





000
SAUS46 KLOX 290949
MTRSDB
METAR KSDB 290948Z AUTO 34016G23KT 10SM CLR 24/06 A3012 RMK AO2
SLP129 T02390056





000
SAUS46 KLOX 290948
MTRCQT
METAR KCQT 290947Z AUTO 00000KT 10SM CLR 23/18 A2985 RMK AO2 SLP104
T02330183





000
SAUS46 KLOX 290849
MTRSDB
METAR KSDB 290848Z AUTO 34016KT 10SM CLR 24/06 A3013 RMK AO2 SLP131
T02440056 56005





000
SAUS46 KLOX 290848
MTRCQT
METAR KCQT 290847Z AUTO 00000KT 10SM CLR 23/18 A2986 RMK AO2 SLP107
T02330183 53001





000
SAUS46 KLOX 290757
MTR9L2
METAR K9L2 290755Z AUTO 18005KT 10SM CLR 26/04 A2993 RMK AO2 SLP110
T02610044 404000183 TSNO $





000
SAUS46 KLOX 290757
MTR9L2
METAR K9L2 290755Z AUTO 18005KT 10SM CLR 26/04 A2993 RMK AO2 SLP110
T02610044 404000183 TSNO $





000
SAUS46 KLOX 290749
MTRSDB
METAR KSDB 290748Z AUTO 33013G22KT 10SM CLR 25/06 A3014 RMK AO2
SLP133 T02500056 403560233





000
SAUS46 KLOX 290749
MTRSDB
METAR KSDB 290748Z AUTO 33013G22KT 10SM CLR 25/06 A3014 RMK AO2
SLP133 T02500056 403560233





000
SAUS46 KLOX 290748
MTRCQT
METAR KCQT 290747Z AUTO 00000KT 10SM CLR 24/18 A2986 RMK AO2 SLP105
T02390178 403610228





000
SAUS46 KLOX 290657
MTR9L2
METAR K9L2 290655Z AUTO 20006KT 10SM CLR 27/04 A2993 RMK AO2 SLP110
T02670039 $





000
SAUS46 KLOX 290657
MTR9L2
METAR K9L2 290655Z AUTO 20006KT 10SM CLR 27/04 A2993 RMK AO2 SLP110
T02670039 $





000
SAUS46 KLOX 290649
MTRSDB
METAR KSDB 290648Z AUTO 34012KT 10SM CLR 25/06 A3014 RMK AO2 SLP132
T02500056





000
SAUS46 KLOX 290648
MTRCQT
METAR KCQT 290647Z AUTO 00000KT 10SM CLR 24/18 A2985 RMK AO2 SLP104
T02390178





000
SAUS46 KLOX 290549
MTRSDB
METAR KSDB 290548Z AUTO 32011G17KT 10SM CLR 25/07 A3015 RMK AO2
SLP138 T02500072 10339 20250 51009





000
SAUS46 KLOX 290549
MTRSDB
METAR KSDB 290548Z AUTO 32011G17KT 10SM CLR 25/07 A3015 RMK AO2
SLP138 T02500072 10339 20250 51009





000
SAUS46 KLOX 290548
MTRCQT
METAR KCQT 290547Z AUTO 00000KT 10SM CLR 24/18 A2986 RMK AO2 SLP106
T02440178 10317 20244 51015





000
SAUS46 KLOX 290548
MTRCQT
METAR KCQT 290547Z AUTO 00000KT 10SM CLR 24/18 A2986 RMK AO2 SLP106
T02440178 10317 20244 51015





000
SAUS46 KLOX 290449
MTRSDB
METAR KSDB 290448Z AUTO 28009KT 10SM CLR 26/07 A3014 RMK AO2 SLP139
T02560072





000
SAUS46 KLOX 290449
MTRSDB
METAR KSDB 290448Z AUTO 28009KT 10SM CLR 26/07 A3014 RMK AO2 SLP139
T02560072





000
SAUS46 KLOX 290448
MTRCQT
METAR KCQT 290447Z AUTO 00000KT 10SM CLR 25/17 A2985 RMK AO2 SLP106
T02500172





000
SAUS46 KLOX 290448
MTRCQT
METAR KCQT 290447Z AUTO 00000KT 10SM CLR 25/17 A2985 RMK AO2 SLP106
T02500172





000
SAUS46 KLOX 290357
MTR9L2
METAR K9L2 290355Z AUTO 24007KT 10SM CLR 32/04 A2992 RMK AO2 SLP108
T03170039 $





000
SAUS46 KLOX 290349
MTRSDB
METAR KSDB 290348Z AUTO VRB06KT 10SM CLR 27/07 A3014 RMK AO2 SLP138
T02670067





000
SAUS46 KLOX 290348
MTRCQT
METAR KCQT 290347Z AUTO 00000KT 10SM CLR 26/17 A2983 RMK AO2 SLP099
T02560172





000
SAUS46 KLOX 290249
MTRSDB
METAR KSDB 290248Z AUTO 34008KT 10SM CLR 28/04 A3012 RMK AO2 SLP132
T02780039 53000





000
SAUS46 KLOX 290248
MTRCQT
METAR KCQT 290247Z AUTO 00000KT 10SM CLR 26/18 A2981 RMK AO2 SLP092
T02610178 55000





000
SAUS46 KLOX 290248
MTRCQT
METAR KCQT 290247Z AUTO 00000KT 10SM CLR 26/18 A2981 RMK AO2 SLP092
T02610178 55000





000
SAUS46 KLOX 290149
MTRSDB
METAR KSDB 290148Z AUTO 34013KT 10SM CLR 30/03 A3011 RMK AO2 SLP129
T03000033





000
SAUS46 KLOX 290149
MTRCQT
METAR KCQT 290147Z AUTO VRB05KT 10SM CLR 28/17 A2981 RMK AO2 SLP089
T02830167





000
SAUS46 KLOX 290057
MTR9L2
METAR K9L2 290055Z AUTO 24016KT 10SM CLR 38/06 A2987 RMK AO2 SLP090
T03780056 $





000
SAUS46 KLOX 290057
MTR9L2
METAR K9L2 290055Z AUTO 24016KT 10SM CLR 38/06 A2987 RMK AO2 SLP090
T03780056 $





000
SAUS46 KLOX 290049
MTRSDB
METAR KSDB 290048Z AUTO 34012KT 10SM CLR 32/03 A3011 RMK AO2 SLP128
T03170033





000
SAUS46 KLOX 290049
MTRSDB
METAR KSDB 290048Z AUTO 34012KT 10SM CLR 32/03 A3011 RMK AO2 SLP128
T03170033





000
SAUS46 KLOX 290048
MTRCQT
METAR KCQT 290047Z AUTO 26006KT 10SM CLR 30/14 A2982 RMK AO2 SLP093
T03000139





000
SAUS46 KLOX 290048
MTRCQT
METAR KCQT 290047Z AUTO 26006KT 10SM CLR 30/14 A2982 RMK AO2 SLP093
T03000139





000
SAUS46 KLOX 282356
MTR9L2
METAR K9L2 282355Z AUTO 25015G22KT 10SM CLR 39/06 A2987 RMK AO2
WSHFT 2336 SLP090 T03940056 10400 20322 56014 $





000
SAUS46 KLOX 282356
MTR9L2
METAR K9L2 282355Z AUTO 25015G22KT 10SM CLR 39/06 A2987 RMK AO2
WSHFT 2336 SLP090 T03940056 10400 20322 56014 $





000
SAUS46 KLOX 282349
MTRSDB
METAR KSDB 282348Z AUTO 25006KT 10SM CLR 34/05 A3012 RMK AO2 SLP127
T03390050 10356 20322 56008





000
SAUS46 KLOX 282349
MTRCQT
METAR KCQT 282347Z AUTO VRB03KT 10SM CLR 32/13 A2981 RMK AO2 SLP092
T03170133 10361 20311 56007





000
SAUS46 KLOX 282349
MTRSDB
METAR KSDB 282348Z AUTO 25006KT 10SM CLR 34/05 A3012 RMK AO2 SLP127
T03390050 10356 20322 56008





000
SAUS46 KLOX 282349
MTRCQT
METAR KCQT 282347Z AUTO VRB03KT 10SM CLR 32/13 A2981 RMK AO2 SLP092
T03170133 10361 20311 56007





000
SAUS46 KLOX 282257
MTR9L2
METAR K9L2 282255Z AUTO 22008KT 10SM CLR 39/04 A2988 RMK AO2 SLP094
T03940039 $





000
SAUS46 KLOX 282249
MTRCQT
METAR KCQT 282247Z AUTO VRB03KT 10SM CLR 33/14 A2982 RMK AO2 SLP093
T03280139





000
SAUS46 KLOX 282249
MTRCQT
METAR KCQT 282247Z AUTO VRB03KT 10SM CLR 33/14 A2982 RMK AO2 SLP093
T03280139





000
SAUS46 KLOX 282249
MTRSDB
METAR KSDB 282248Z AUTO 20014G20KT 10SM CLR 34/06 A3012 RMK AO2
WSHFT 2215 SLP129 T03390056





000
SAUS46 KLOX 282233
MTRSDB
SPECI KSDB 282232Z AUTO 21011KT 10SM CLR 34/06 A3013 RMK AO2 WSHFT
2215 T03390056





000
SAUS46 KLOX 282233
MTRSDB
SPECI KSDB 282232Z AUTO 21011KT 10SM CLR 34/06 A3013 RMK AO2 WSHFT
2215 T03390056





000
SAUS46 KLOX 282149
MTRSDB
METAR KSDB 282148Z AUTO 20011G21KT 10SM CLR 34/04 A3013 RMK AO2 PK
WND 14026/2117 WSHFT 2049 SLP132 T03440044





000
SAUS46 KLOX 282148
MTRCQT
METAR KCQT 282147Z AUTO 00000KT 10SM CLR 34/13 A2983 RMK AO2 SLP098
T03390128





000
SAUS46 KLOX 282108
MTRSDB
SPECI KSDB 282106Z AUTO 15016G23KT 10SM CLR 36/04 A3014 RMK AO2
WSHFT 2049 T03560044





000
SAUS46 KLOX 282108
MTRSDB
SPECI KSDB 282106Z AUTO 15016G23KT 10SM CLR 36/04 A3014 RMK AO2
WSHFT 2049 T03560044





000
SAUS46 KLOX 282049
MTRSDB
METAR KSDB 282048Z AUTO 21013G22KT 10SM CLR 34/06 A3014 RMK AO2
WSHFT 1935 SLP135 T03390061 56013





000
SAUS46 KLOX 282048
MTRCQT
METAR KCQT 282047Z AUTO 00000KT 10SM CLR 35/14 A2984 RMK AO2 SLP099
T03500144 58015





000
SAUS46 KLOX 282048
MTRCQT
METAR KCQT 282047Z AUTO 00000KT 10SM CLR 35/14 A2984 RMK AO2 SLP099
T03500144 58015





000
SAUS46 KLOX 281953
MTRSDB
SPECI KSDB 281952Z AUTO 20011G16KT 10SM CLR 34/06 A3015 RMK AO2
WSHFT 1935 T03390061





000
SAUS46 KLOX 281953
MTRSDB
SPECI KSDB 281952Z AUTO 20011G16KT 10SM CLR 34/06 A3015 RMK AO2
WSHFT 1935 T03390061





000
SAUS46 KLOX 281949
MTRSDB
METAR KSDB 281948Z AUTO 22010KT 10SM CLR 34/05 A3016 RMK AO2 SLP138
T03390050





000
SAUS46 KLOX 281949
MTRSDB
METAR KSDB 281948Z AUTO 22010KT 10SM CLR 34/05 A3016 RMK AO2 SLP138
T03390050





000
SAUS46 KLOX 281948
MTRCQT
METAR KCQT 281947Z AUTO VRB03KT 10SM CLR 35/17 A2985 RMK AO2 SLP102
T03500167





000
SAUS46 KLOX 281948
MTRCQT
METAR KCQT 281947Z AUTO VRB03KT 10SM CLR 35/17 A2985 RMK AO2 SLP102
T03500167





000
SAUS46 KLOX 281857
MTR9L2
METAR K9L2 281855Z AUTO 00000KT 10SM CLR 35/03 A2998 RMK AO2 SLP126
T03500028 TSNO $





000
SAUS46 KLOX 281849
MTRSDB
METAR KSDB 281848Z AUTO 18009G18KT 140V210 10SM CLR 35/04 A3018 RMK
AO2 SLP144 T03500044





000
SAUS46 KLOX 281849
MTRSDB
METAR KSDB 281848Z AUTO 18009G18KT 140V210 10SM CLR 35/04 A3018 RMK
AO2 SLP144 T03500044





000
SAUS46 KLOX 281848
MTRCQT
METAR KCQT 281847Z AUTO 00000KT 10SM CLR 36/14 A2987 RMK AO2 SLP110
T03560144





000
SAUS46 KLOX 281757
MTR9L2
METAR K9L2 281755Z AUTO 00000KT 10SM CLR 33/04 A3000 RMK AO2 SLP134
T03280039 10333 20183 58004 TSNO $





000
SAUS46 KLOX 281757
MTR9L2
METAR K9L2 281755Z AUTO 00000KT 10SM CLR 33/04 A3000 RMK AO2 SLP134
T03280039 10333 20183 58004 TSNO $





000
SAUS46 KLOX 281749
MTRSDB
METAR KSDB 281748Z AUTO VRB05KT 10SM CLR 32/04 A3019 RMK AO2 SLP152
T03220039 10333 20233 51003





000
SAUS46 KLOX 281749
MTRSDB
METAR KSDB 281748Z AUTO VRB05KT 10SM CLR 32/04 A3019 RMK AO2 SLP152
T03220039 10333 20233 51003





000
SAUS46 KLOX 281748
MTRCQT
METAR KCQT 281747Z AUTO 00000KT 10SM CLR 34/15 A2988 RMK AO2 SLP114
T03390150 10339 20228 58002





000
SAUS46 KLOX 281748
MTRCQT
METAR KCQT 281747Z AUTO 00000KT 10SM CLR 34/15 A2988 RMK AO2 SLP114
T03390150 10339 20228 58002





000
SAUS46 KLOX 281658
MTR9L2
METAR K9L2 281655Z AUTO 00000KT 10SM CLR 28/04 A3001 RMK AO2 SLP140
T02830039 TSNO $





000
SAUS46 KLOX 281649
MTRSDB
METAR KSDB 281648Z AUTO VRB04KT 10SM CLR 31/03 A3019 RMK AO2 SLP154
T03110033





000
SAUS46 KLOX 281649
MTRCQT
METAR KCQT 281647Z AUTO 00000KT 10SM CLR 32/16 A2989 RMK AO2 SLP117
T03170156





000
SAUS46 KLOX 281649
MTRCQT
METAR KCQT 281647Z AUTO 00000KT 10SM CLR 32/16 A2989 RMK AO2 SLP117
T03170156





000
SAUS46 KLOX 281549
MTRSDB
METAR KSDB 281548Z AUTO 32005KT 10SM CLR 29/04 A3018 RMK AO2 SLP156
T02890039





000
SAUS46 KLOX 281548
MTRCQT
METAR KCQT 281547Z AUTO 00000KT 7SM CLR 29/18 A2989 RMK AO2 SLP116
T02890183





000
SAUS46 KLOX 281449
MTRSDB
METAR KSDB 281448Z AUTO 33007KT 10SM CLR 27/04 A3018 RMK AO2 SLP156
T02670044 53004





000
SAUS46 KLOX 281449
MTRSDB
METAR KSDB 281448Z AUTO 33007KT 10SM CLR 27/04 A3018 RMK AO2 SLP156
T02670044 53004





000
SAUS46 KLOX 281448
MTRCQT
METAR KCQT 281447Z AUTO 00000KT 8SM CLR 26/18 A2989 RMK AO2 SLP117
T02560183 53005





000
SAUS46 KLOX 281448
MTRCQT
METAR KCQT 281447Z AUTO 00000KT 8SM CLR 26/18 A2989 RMK AO2 SLP117
T02560183 53005





000
SAUS46 KLOX 281357
MTR9L2
METAR K9L2 281355Z AUTO 00000KT 10SM CLR 19/02 A3000 RMK AO2 SLP140
T01890022 $





000
SAUS46 KLOX 281349
MTRSDB
METAR KSDB 281348Z AUTO 33009KT 10SM CLR 24/05 A3017 RMK AO2 SLP153
T02390050





000
SAUS46 KLOX 281348
MTRCQT
METAR KCQT 281347Z AUTO 00000KT 10SM CLR 23/18 A2988 RMK AO2 SLP116
T02330183





000
SAUS46 KLOX 281348
MTRCQT
METAR KCQT 281347Z AUTO 00000KT 10SM CLR 23/18 A2988 RMK AO2 SLP116
T02330183





000
SAUS46 KLOX 281257
MTR9L2
METAR K9L2 281255Z AUTO 00000KT 10SM CLR 19/03 A2999 RMK AO2 SLP134
T01890028 $





000
SAUS46 KLOX 281257
MTR9L2
METAR K9L2 281255Z AUTO 00000KT 10SM CLR 19/03 A2999 RMK AO2 SLP134
T01890028 $





000
SAUS46 KLOX 281249
MTRSDB
METAR KSDB 281248Z AUTO 34010KT 10SM SCT095 23/06 A3017 RMK AO2
SLP151 T02330056





000
SAUS46 KLOX 281248
MTRCQT
METAR KCQT 281247Z AUTO 00000KT 10SM CLR 23/18 A2987 RMK AO2 SLP113
T02330183





000
SAUS46 KLOX 281200
MTR9L2
METAR K9L2 281155Z AUTO 30003KT 10SM CLR 19/03 A2999 RMK AO2 SLP132
T01940028 10272 20194 51002 TSNO $





000
SAUS46 KLOX 281200
MTR9L2
METAR K9L2 281155Z AUTO 30003KT 10SM CLR 19/03 A2999 RMK AO2 SLP132
T01940028 10272 20194 51002 TSNO $





000
SAUS46 KLOX 281149
MTRSDB
METAR KSDB 281148Z AUTO 34013KT 10SM CLR 23/06 A3016 RMK AO2 SLP149
T02330056 10261 20233 56005





000
SAUS46 KLOX 281149
MTRSDB
METAR KSDB 281148Z AUTO 34013KT 10SM CLR 23/06 A3016 RMK AO2 SLP149
T02330056 10261 20233 56005





000
SAUS46 KLOX 281148
MTRCQT
METAR KCQT 281147Z AUTO 00000KT 10SM CLR 23/18 A2987 RMK AO2 SLP112
T02330183 10244 20228 57006





000
SAUS46 KLOX 281148
MTRCQT
METAR KCQT 281147Z AUTO 00000KT 10SM CLR 23/18 A2987 RMK AO2 SLP112
T02330183 10244 20228 57006





000
SAUS46 KLOX 281100
MTR9L2
METAR K9L2 281055Z AUTO 05003KT 10SM CLR 20/03 A2999 RMK AO2 SLP131
T02000028 TSNO $





000
SAUS46 KLOX 281100
MTR9L2
METAR K9L2 281055Z AUTO 05003KT 10SM CLR 20/03 A2999 RMK AO2 SLP131
T02000028 TSNO $





000
SAUS46 KLOX 281049
MTRSDB
METAR KSDB 281048Z AUTO 34018KT 10SM CLR 24/05 A3017 RMK AO2 PK WND
35027/1018 SLP149 T02390050





000
SAUS46 KLOX 281048
MTRCQT
METAR KCQT 281047Z AUTO 00000KT 10SM CLR 23/18 A2987 RMK AO2 SLP113
T02330183





000
SAUS46 KLOX 281048
MTRCQT
METAR KCQT 281047Z AUTO 00000KT 10SM CLR 23/18 A2987 RMK AO2 SLP113
T02330183





000
SAUS46 KLOX 280957
MTR9L2
METAR K9L2 280955Z AUTO 00000KT 10SM CLR 22/02 A2999 RMK AO2 SLP130
T02170022 TSNO $





000
SAUS46 KLOX 280957
MTR9L2
METAR K9L2 280955Z AUTO 00000KT 10SM CLR 22/02 A2999 RMK AO2 SLP130
T02170022 TSNO $





000
SAUS46 KLOX 280949
MTRSDB
METAR KSDB 280948Z AUTO 35021G28KT 10SM CLR 24/03 A3017 RMK AO2 PK
WND 35028/0947 SLP148 T02440033





000
SAUS46 KLOX 280949
MTRSDB
METAR KSDB 280948Z AUTO 35021G28KT 10SM CLR 24/03 A3017 RMK AO2 PK
WND 35028/0947 SLP148 T02440033





000
SAUS46 KLOX 280948
MTRCQT
METAR KCQT 280947Z AUTO 00000KT 10SM CLR 23/19 A2989 RMK AO2 SLP118
T02280189





000
SAUS46 KLOX 280859
MTR9L2
METAR K9L2 280855Z AUTO 00000KT 10SM CLR 22/03 A2998 RMK AO2 SLP128
T02220028 58004 TSNO $





000
SAUS46 KLOX 280859
MTR9L2
METAR K9L2 280855Z AUTO 00000KT 10SM CLR 22/03 A2998 RMK AO2 SLP128
T02220028 58004 TSNO $





000
SAUS46 KLOX 280849
MTRSDB
METAR KSDB 280848Z AUTO 34013G28KT 10SM CLR 25/02 A3018 RMK AO2 PK
WND 34028/0841 SLP150 T02500022 58006





000
SAUS46 KLOX 280849
MTRSDB
METAR KSDB 280848Z AUTO 34013G28KT 10SM CLR 25/02 A3018 RMK AO2 PK
WND 34028/0841 SLP150 T02500022 58006





000
SAUS46 KLOX 280848
MTRCQT
METAR KCQT 280847Z AUTO 00000KT 10SM CLR 24/17 A2989 RMK AO2 SLP119
T02390172 58004





000
SAUS46 KLOX 280848
MTRCQT
METAR KCQT 280847Z AUTO 00000KT 10SM CLR 24/17 A2989 RMK AO2 SLP119
T02390172 58004





000
SAUS46 KLOX 280757
MTR9L2
METAR K9L2 280755Z AUTO 20006KT 10SM CLR 24/03 A2999 RMK AO2 SLP130
T02440033 403940178 TSNO $





000
SAUS46 KLOX 280749
MTRSDB
METAR KSDB 280748Z AUTO 34011G24KT 320V030 10SM CLR 26/01 A3019 RMK
AO2 PK WND 34029/0726 SLP153 T02610011 403280217





000
SAUS46 KLOX 280748
MTRCQT
METAR KCQT 280747Z AUTO 00000KT 10SM CLR 24/18 A2990 RMK AO2 SLP121
T02390178 403390217





000
SAUS46 KLOX 280700
MTR9L2
METAR K9L2 280655Z AUTO 00000KT 10SM CLR 26/03 A2999 RMK AO2 SLP133
T02610033 TSNO $





000
SAUS46 KLOX 280700
MTR9L2
METAR K9L2 280655Z AUTO 00000KT 10SM CLR 26/03 A2999 RMK AO2 SLP133
T02610033 TSNO $





000
SAUS46 KLOX 280649
MTRSDB
METAR KSDB 280648Z AUTO 33014G22KT 10SM CLR 26/01 A3020 RMK AO2
SLP156 T02610011





000
SAUS46 KLOX 280649
MTRSDB
METAR KSDB 280648Z AUTO 33014G22KT 10SM CLR 26/01 A3020 RMK AO2
SLP156 T02610011





000
SAUS46 KLOX 280648
MTRCQT
METAR KCQT 280647Z AUTO 00000KT 10SM CLR 24/18 A2991 RMK AO2 SLP123
T02390183





000
SAUS46 KLOX 280648
MTRCQT
METAR KCQT 280647Z AUTO 00000KT 10SM CLR 24/18 A2991 RMK AO2 SLP123
T02390183





000
SAUS46 KLOX 280600
MTR9L2
METAR K9L2 280555Z AUTO 20005KT 10SM CLR 27/03 A3000 RMK AO2 SLP134
T02720033 10394 20272 51014 TSNO $





000
SAUS46 KLOX 280549
MTRSDB
METAR KSDB 280548Z AUTO 32011KT 10SM CLR 25/03 A3020 RMK AO2 SLP161
T02500028 10306 20239 50010





000
SAUS46 KLOX 280549
MTRSDB
METAR KSDB 280548Z AUTO 32011KT 10SM CLR 25/03 A3020 RMK AO2 SLP161
T02500028 10306 20239 50010





000
SAUS46 KLOX 280548
MTRCQT
METAR KCQT 280547Z AUTO 00000KT 10SM CLR 24/18 A2990 RMK AO2 SLP123
T02440178 10311 20244 50013





000
SAUS46 KLOX 280548
MTRCQT
METAR KCQT 280547Z AUTO 00000KT 10SM CLR 24/18 A2990 RMK AO2 SLP123
T02440178 10311 20244 50013





000
SAUS46 KLOX 280457
MTR9L2
METAR K9L2 280455Z AUTO 22007KT 10SM CLR 29/03 A2999 RMK AO2 SLP133
T02890033 TSNO $





000
SAUS46 KLOX 280449
MTRSDB
METAR KSDB 280448Z AUTO 35007KT 320V050 10SM CLR 24/04 A3021 RMK AO2
SLP166 T02440039





000
SAUS46 KLOX 280448
MTRCQT
METAR KCQT 280447Z AUTO 00000KT 10SM CLR 25/17 A2991 RMK AO2 SLP123
T02500172





000
SAUS46 KLOX 280357
MTR9L2
METAR K9L2 280355Z AUTO 27005KT 10SM CLR 30/03 A2998 RMK AO2 SLP129
T03000028 $





000
SAUS46 KLOX 280349
MTRSDB
METAR KSDB 280348Z AUTO 33005KT 10SM CLR 24/04 A3020 RMK AO2 SLP164
T02440039





000
SAUS46 KLOX 280348
MTRCQT
METAR KCQT 280347Z AUTO 00000KT 10SM CLR 26/17 A2989 RMK AO2 SLP119
T02560167





000
SAUS46 KLOX 280348
MTRCQT
METAR KCQT 280347Z AUTO 00000KT 10SM CLR 26/17 A2989 RMK AO2 SLP119
T02560167





000
SAUS46 KLOX 280257
MTR9L2
METAR K9L2 280255Z AUTO 28010KT 10SM CLR 32/03 A2995 RMK AO2 SLP121
T03220028 53006 $





000
SAUS46 KLOX 280249
MTRSDB
METAR KSDB 280248Z AUTO 34008G18KT 10SM CLR 26/03 A3017 RMK AO2
SLP154 T02560033 58005





000
SAUS46 KLOX 280248
MTRCQT
METAR KCQT 280247Z AUTO VRB03KT 10SM CLR 26/17 A2987 RMK AO2 SLP110
T02610172 55002





000
SAUS46 KLOX 280157
MTR9L2
METAR K9L2 280155Z AUTO 28016KT 10SM CLR 35/02 A2993 RMK AO2 SLP116
T03500022 $





000
SAUS46 KLOX 280157
MTR9L2
METAR K9L2 280155Z AUTO 28016KT 10SM CLR 35/02 A2993 RMK AO2 SLP116
T03500022 $





000
SAUS46 KLOX 280149
MTRSDB
METAR KSDB 280148Z AUTO 35010G17KT 10SM CLR 27/03 A3018 RMK AO2
SLP157 T02720033





000
SAUS46 KLOX 280149
MTRCQT
METAR KCQT 280147Z AUTO VRB03KT 10SM CLR 28/16 A2986 RMK AO2 SLP108
T02780156





000
SAUS46 KLOX 280149
MTRSDB
METAR KSDB 280148Z AUTO 35010G17KT 10SM CLR 27/03 A3018 RMK AO2
SLP157 T02720033





000
SAUS46 KLOX 280100
MTR9L2
METAR K9L2 280055Z AUTO 28015KT 10SM CLR 38/02 A2993 RMK AO2 SLP112
T03780017 $





000
SAUS46 KLOX 280049
MTRSDB
METAR KSDB 280048Z AUTO 33013G21KT 10SM CLR 29/02 A3018 RMK AO2
SLP157 T02890022





000
SAUS46 KLOX 280048
MTRCQT
METAR KCQT 280047Z AUTO 00000KT 10SM CLR 30/15 A2986 RMK AO2 SLP109
T03000150





000
SAUS46 KLOX 272357
MTR9L2
METAR K9L2 272355Z AUTO 35004KT 10SM CLR 39/02 A2993 RMK AO2 SLP112
T03940017 10394 20317 56025 $





000
SAUS46 KLOX 272357
MTR9L2
METAR K9L2 272355Z AUTO 35004KT 10SM CLR 39/02 A2993 RMK AO2 SLP112
T03940017 10394 20317 56025 $





000
SAUS46 KLOX 272349
MTRCQT
METAR KCQT 272347Z AUTO VRB03KT 10SM CLR 31/15 A2987 RMK AO2 SLP112
T03060150 10339 20306 56019





000
SAUS46 KLOX 272349
MTRSDB
METAR KSDB 272348Z AUTO 34018G24KT 10SM CLR 30/03 A3019 RMK AO2
SLP158 T03000033 10328 20289 56015





000
SAUS46 KLOX 272349
MTRCQT
METAR KCQT 272347Z AUTO VRB03KT 10SM CLR 31/15 A2987 RMK AO2 SLP112
T03060150 10339 20306 56019





000
SAUS46 KLOX 272349
MTRSDB
METAR KSDB 272348Z AUTO 34018G24KT 10SM CLR 30/03 A3019 RMK AO2
SLP158 T03000033 10328 20289 56015





000
SAUS46 KLOX 272300
MTR9L2
METAR K9L2 272255Z AUTO 16007KT 10SM CLR 38/02 A2995 RMK AO2 SLP117
T03830017 $





000
SAUS46 KLOX 272300
MTR9L2
METAR K9L2 272255Z AUTO 16007KT 10SM CLR 38/02 A2995 RMK AO2 SLP117
T03830017 $





000
SAUS46 KLOX 272249
MTRSDB
METAR KSDB 272248Z AUTO 34021G29KT 10SM CLR 32/03 A3020 RMK AO2 PK
WND 34029/2247 SLP160 T03170028





000
SAUS46 KLOX 272249
MTRCQT
METAR KCQT 272247Z AUTO 28006KT 10SM CLR 32/14 A2988 RMK AO2 SLP116
T03170139





000
SAUS46 KLOX 272157
MTR9L2
METAR K9L2 272155Z AUTO 14004KT 10SM CLR 38/02 A2998 RMK AO2 SLP127
T03830017 $





000
SAUS46 KLOX 272157
MTR9L2
METAR K9L2 272155Z AUTO 14004KT 10SM CLR 38/02 A2998 RMK AO2 SLP127
T03830017 $





000
SAUS46 KLOX 272149
MTRSDB
METAR KSDB 272148Z AUTO 34019G26KT 10SM CLR 32/01 A3022 RMK AO2 PK
WND 34026/2148 SLP165 T03170011





000
SAUS46 KLOX 272148
MTRCQT
METAR KCQT 272147Z AUTO 10SM CLR 32/16 A2991 RMK AO2 SLP125
T03220156





000
SAUS46 KLOX 272148
MTRCQT
METAR KCQT 272147Z AUTO 10SM CLR 32/16 A2991 RMK AO2 SLP125
T03220156





000
SAUS46 KLOX 272100
MTR9L2
METAR K9L2 272055Z AUTO VRB03KT 10SM CLR 37/01 A3001 RMK AO2 SLP138
T03720011 58023 $





000
SAUS46 KLOX 272049
MTRSDB
METAR KSDB 272048Z AUTO 34016KT 10SM CLR 32/01 A3024 RMK AO2 SLP170
T03220011 58012





000
SAUS46 KLOX 272048
MTRCQT
METAR KCQT 272047Z AUTO 00000KT 10SM CLR 33/16 A2993 RMK AO2 SLP132
T03280161 58015





    US Dept of Commerce
    National Oceanic and Atmospheric Administration
    National Weather Service
    1325 East West Highway
    Silver Spring, MD 20910
    Page Author: NWS Internet Services Team
Disclaimer
Information Quality
Credits
Glossary
Privacy Policy
Freedom of Information Act (FOIA)
About Us
Career Opportunities